sensor_id;sensor_type;location;lat;lon;timestamp;temperature;humidity
27534;DHT22;14973;51.460;7.008;2022-11-02T00:00:41;13.60;27.70
27534;DHT22;14973;51.460;7.008;2022-11-02T00:03:07;13.60;11.20
27534;DHT22;14973;51.460;7.008;2022-11-02T00:05:33;13.60;1.00
27534;DHT22;14973;51.460;7.008;2022-11-02T00:07:58;13.60;1.00
27534;DHT22;14973;51.460;7.008;2022-11-02T00:10:24;13.60;1.00
27534;DHT22;14973;51.460;7.008;2022-11-02T00:12:51;13.60;64.40
27534;DHT22;14973;51.460;7.008;2022-11-02T00:15:17;13.60;95.70
27534;DHT22;14973;51.460;7.008;2022-11-02T00:17:47;13.60;99.90
27534;DHT22;14973;51.460;7.008;2022-11-02T00:20:16;13.60;1.00
27534;DHT22;14973;51.460;7.008;2022-11-02T00:22:43;13.60;99.90
27534;DHT22;14973;51.460;7.008;2022-11-02T00:25:12;13.50;1.00
27534;DHT22;14973;51.460;7.008;2022-11-02T00:27:39;13.50;1.00
27534;DHT22;14973;51.460;7.008;2022-11-02T00:30:07;13.40;99.90
27534;DHT22;14973;51.460;7.008;2022-11-02T00:32:33;13.50;75.00
27534;DHT22;14973;51.460;7.008;2022-11-02T00:34:59;13.50;8.10
27534;DHT22;14973;51.460;7.008;2022-11-02T00:37:25;13.50;13.20
27534;DHT22;14973;51.460;7.008;2022-11-02T00:39:50;13.50;1.00
27534;DHT22;14973;51.460;7.008;2022-11-02T00:42:16;13.50;1.00
27534;DHT22;14973;51.460;7.008;2022-11-02T00:44:41;13.50;1.00
27534;DHT22;14973;51.460;7.008;2022-11-02T00:47:07;13.50;1.00
27534;DHT22;14973;51.460;7.008;2022-11-02T00:49:33;13.50;1.00
27534;DHT22;14973;51.460;7.008;2022-11-02T00:51:58;13.50;1.00
27534;DHT22;14973;51.460;7.008;2022-11-02T00:54:24;13.50;1.00
27534;DHT22;14973;51.460;7.008;2022-11-02T00:56:49;13.50;1.00
27534;DHT22;14973;51.460;7.008;2022-11-02T00:59:15;13.60;1.00
27534;DHT22;14973;51.460;7.008;2022-11-02T01:01:41;13.60;1.00
27534;DHT22;14973;51.460;7.008;2022-11-02T01:04:12;13.60;1.00
27534;DHT22;14973;51.460;7.008;2022-11-02T01:06:38;13.60;1.00
27534;DHT22;14973;51.460;7.008;2022-11-02T01:09:04;13.60;1.00
27534;DHT22;14973;51.460;7.008;2022-11-02T01:11:29;13.60;1.00
27534;DHT22;14973;51.460;7.008;2022-11-02T01:13:55;13.60;1.00
27534;DHT22;14973;51.460;7.008;2022-11-02T01:16:20;13.60;1.00
27534;DHT22;14973;51.460;7.008;2022-11-02T01:18:51;13.50;1.00
27534;DHT22;14973;51.460;7.008;2022-11-02T01:21:18;13.50;44.40
27534;DHT22;14973;51.460;7.008;2022-11-02T01:23:44;13.50;8.30
27534;DHT22;14973;51.460;7.008;2022-11-02T01:26:10;13.50;57.00
27534;DHT22;14973;51.460;7.008;2022-11-02T01:28:36;13.50;99.90
27534;DHT22;14973;51.460;7.008;2022-11-02T01:31:02;13.50;99.90
27534;DHT22;14973;51.460;7.008;2022-11-02T01:33:28;13.40;99.90
27534;DHT22;14973;51.460;7.008;2022-11-02T01:35:54;13.30;99.90
27534;DHT22;14973;51.460;7.008;2022-11-02T01:38:20;13.30;99.90
27534;DHT22;14973;51.460;7.008;2022-11-02T01:40:46;13.30;99.90
27534;DHT22;14973;51.460;7.008;2022-11-02T01:43:27;13.20;99.90
27534;DHT22;14973;51.460;7.008;2022-11-02T01:46:18;13.20;1.00
27534;DHT22;14973;51.460;7.008;2022-11-02T01:51:42;13.10;1.00
27534;DHT22;14973;51.460;7.008;2022-11-02T01:54:17;13.10;1.00
27534;DHT22;14973;51.460;7.008;2022-11-02T01:56:48;13.10;1.00
27534;DHT22;14973;51.460;7.008;2022-11-02T01:59:18;13.00;1.00
27534;DHT22;14973;51.460;7.008;2022-11-02T02:01:47;13.10;1.00
27534;DHT22;14973;51.460;7.008;2022-11-02T02:04:14;13.10;1.00
27534;DHT22;14973;51.460;7.008;2022-11-02T02:06:40;13.20;1.00
27534;DHT22;14973;51.460;7.008;2022-11-02T02:09:06;13.30;1.00
27534;DHT22;14973;51.460;7.008;2022-11-02T02:11:38;13.40;1.00
27534;DHT22;14973;51.460;7.008;2022-11-02T02:19:19;13.50;1.00
27534;DHT22;14973;51.460;7.008;2022-11-02T02:27:17;13.50;1.00
27534;DHT22;14973;51.460;7.008;2022-11-02T02:30:05;13.40;1.00
27534;DHT22;14973;51.460;7.008;2022-11-02T02:35:45;13.40;1.00
27534;DHT22;14973;51.460;7.008;2022-11-02T02:38:33;13.30;1.00
27534;DHT22;14973;51.460;7.008;2022-11-02T02:41:08;13.30;1.00
27534;DHT22;14973;51.460;7.008;2022-11-02T02:43:49;13.30;1.00
27534;DHT22;14973;51.460;7.008;2022-11-02T02:48:47;13.40;1.00
27534;DHT22;14973;51.460;7.008;2022-11-02T02:51:34;13.50;1.00
27534;DHT22;14973;51.460;7.008;2022-11-02T02:54:05;13.50;1.00
27534;DHT22;14973;51.460;7.008;2022-11-02T02:56:39;13.50;99.90
27534;DHT22;14973;51.460;7.008;2022-11-02T03:02:22;13.50;1.00
27534;DHT22;14973;51.460;7.008;2022-11-02T03:04:48;13.60;99.90
27534;DHT22;14973;51.460;7.008;2022-11-02T03:07:19;13.60;99.90
27534;DHT22;14973;51.460;7.008;2022-11-02T03:12:50;13.60;99.90
27534;DHT22;14973;51.460;7.008;2022-11-02T03:15:23;13.60;99.90
27534;DHT22;14973;51.460;7.008;2022-11-02T03:23:19;13.60;99.90
27534;DHT22;14973;51.460;7.008;2022-11-02T03:26:08;13.60;99.90
27534;DHT22;14973;51.460;7.008;2022-11-02T03:28:41;13.60;99.90
27534;DHT22;14973;51.460;7.008;2022-11-02T03:34:48;13.50;99.90
27534;DHT22;14973;51.460;7.008;2022-11-02T03:37:01;13.60;99.90
27534;DHT22;14973;51.460;7.008;2022-11-02T03:39:40;13.50;99.90
27534;DHT22;14973;51.460;7.008;2022-11-02T03:42:09;13.50;99.90
27534;DHT22;14973;51.460;7.008;2022-11-02T03:44:37;13.40;99.90
27534;DHT22;14973;51.460;7.008;2022-11-02T03:47:05;13.40;99.90
27534;DHT22;14973;51.460;7.008;2022-11-02T03:49:33;13.30;99.90
27534;DHT22;14973;51.460;7.008;2022-11-02T03:52:03;13.30;99.90
27534;DHT22;14973;51.460;7.008;2022-11-02T03:54:45;13.30;99.90
27534;DHT22;14973;51.460;7.008;2022-11-02T03:57:18;13.30;99.90
27534;DHT22;14973;51.460;7.008;2022-11-02T03:59:45;13.30;99.90
27534;DHT22;14973;51.460;7.008;2022-11-02T04:02:11;13.30;99.90
27534;DHT22;14973;51.460;7.008;2022-11-02T04:04:51;13.20;99.90
27534;DHT22;14973;51.460;7.008;2022-11-02T04:07:24;13.20;99.90
27534;DHT22;14973;51.460;7.008;2022-11-02T04:09:51;13.20;99.90
27534;DHT22;14973;51.460;7.008;2022-11-02T04:12:17;13.20;99.90
27534;DHT22;14973;51.460;7.008;2022-11-02T04:15:01;13.20;99.90
27534;DHT22;14973;51.460;7.008;2022-11-02T04:17:26;13.10;1.00
27534;DHT22;14973;51.460;7.008;2022-11-02T04:20:11;13.10;1.00
27534;DHT22;14973;51.460;7.008;2022-11-02T04:22:36;13.10;1.00
27534;DHT22;14973;51.460;7.008;2022-11-02T04:25:20;13.10;1.00
27534;DHT22;14973;51.460;7.008;2022-11-02T04:27:51;13.00;1.00
27534;DHT22;14973;51.460;7.008;2022-11-02T04:30:19;12.90;1.00
27534;DHT22;14973;51.460;7.008;2022-11-02T04:32:47;12.90;1.00
27534;DHT22;14973;51.460;7.008;2022-11-02T04:35:32;12.90;1.00
27534;DHT22;14973;51.460;7.008;2022-11-02T04:37:58;12.90;1.00
27534;DHT22;14973;51.460;7.008;2022-11-02T04:40:43;12.90;1.00
27534;DHT22;14973;51.460;7.008;2022-11-02T04:43:09;12.90;1.00
27534;DHT22;14973;51.460;7.008;2022-11-02T04:45:34;12.90;1.00
27534;DHT22;14973;51.460;7.008;2022-11-02T04:48:05;12.90;1.00
27534;DHT22;14973;51.460;7.008;2022-11-02T04:50:32;12.80;1.00
27534;DHT22;14973;51.460;7.008;2022-11-02T04:52:59;12.90;1.00
27534;DHT22;14973;51.460;7.008;2022-11-02T04:55:25;12.80;1.00
27534;DHT22;14973;51.460;7.008;2022-11-02T04:57:51;12.80;1.00
27534;DHT22;14973;51.460;7.008;2022-11-02T05:00:17;12.80;1.00
27534;DHT22;14973;51.460;7.008;2022-11-02T05:02:46;12.80;1.00
27534;DHT22;14973;51.460;7.008;2022-11-02T05:05:12;12.90;1.00
27534;DHT22;14973;51.460;7.008;2022-11-02T05:07:37;12.90;1.00
27534;DHT22;14973;51.460;7.008;2022-11-02T05:10:03;12.90;1.00
27534;DHT22;14973;51.460;7.008;2022-11-02T05:12:29;13.00;99.90
27534;DHT22;14973;51.460;7.008;2022-11-02T05:14:55;12.90;99.90
27534;DHT22;14973;51.460;7.008;2022-11-02T05:17:20;12.90;99.90
27534;DHT22;14973;51.460;7.008;2022-11-02T05:19:46;12.80;99.90
27534;DHT22;14973;51.460;7.008;2022-11-02T05:22:11;12.80;1.00
27534;DHT22;14973;51.460;7.008;2022-11-02T05:24:37;12.80;99.90
27534;DHT22;14973;51.460;7.008;2022-11-02T05:27:03;12.80;99.90
27534;DHT22;14973;51.460;7.008;2022-11-02T05:29:28;12.90;99.90
27534;DHT22;14973;51.460;7.008;2022-11-02T05:31:55;12.90;99.90
27534;DHT22;14973;51.460;7.008;2022-11-02T05:34:21;13.00;99.90
27534;DHT22;14973;51.460;7.008;2022-11-02T05:36:47;13.00;99.90
27534;DHT22;14973;51.460;7.008;2022-11-02T05:39:13;13.00;99.90
27534;DHT22;14973;51.460;7.008;2022-11-02T05:41:38;13.00;99.90
27534;DHT22;14973;51.460;7.008;2022-11-02T05:44:04;12.90;99.90
27534;DHT22;14973;51.460;7.008;2022-11-02T05:46:30;12.90;99.90
27534;DHT22;14973;51.460;7.008;2022-11-02T05:48:55;12.90;99.90
27534;DHT22;14973;51.460;7.008;2022-11-02T05:51:21;12.80;99.90
27534;DHT22;14973;51.460;7.008;2022-11-02T05:53:46;12.80;99.90
27534;DHT22;14973;51.460;7.008;2022-11-02T05:56:12;12.80;99.90
27534;DHT22;14973;51.460;7.008;2022-11-02T05:58:39;12.70;1.00
27534;DHT22;14973;51.460;7.008;2022-11-02T06:01:06;12.70;1.00
27534;DHT22;14973;51.460;7.008;2022-11-02T06:03:33;12.70;1.00
27534;DHT22;14973;51.460;7.008;2022-11-02T06:06:04;12.70;1.00
27534;DHT22;14973;51.460;7.008;2022-11-02T06:08:37;12.70;1.00
27534;DHT22;14973;51.460;7.008;2022-11-02T06:11:07;12.60;1.00
27534;DHT22;14973;51.460;7.008;2022-11-02T06:13:34;12.60;1.00
27534;DHT22;14973;51.460;7.008;2022-11-02T06:16:01;12.50;1.00
27534;DHT22;14973;51.460;7.008;2022-11-02T06:18:27;12.50;1.00
27534;DHT22;14973;51.460;7.008;2022-11-02T06:20:55;12.50;1.00
27534;DHT22;14973;51.460;7.008;2022-11-02T06:23:21;12.50;1.00
27534;DHT22;14973;51.460;7.008;2022-11-02T06:25:54;12.50;1.00
27534;DHT22;14973;51.460;7.008;2022-11-02T06:28:20;12.50;1.00
27534;DHT22;14973;51.460;7.008;2022-11-02T06:30:46;12.40;1.00
27534;DHT22;14973;51.460;7.008;2022-11-02T06:33:12;12.40;1.00
27534;DHT22;14973;51.460;7.008;2022-11-02T06:35:38;12.40;1.00
27534;DHT22;14973;51.460;7.008;2022-11-02T06:38:03;12.40;1.00
27534;DHT22;14973;51.460;7.008;2022-11-02T06:40:29;12.50;1.00
27534;DHT22;14973;51.460;7.008;2022-11-02T06:42:55;12.60;1.00
27534;DHT22;14973;51.460;7.008;2022-11-02T06:45:21;12.60;1.00
27534;DHT22;14973;51.460;7.008;2022-11-02T06:47:47;12.70;1.00
27534;DHT22;14973;51.460;7.008;2022-11-02T06:50:13;12.70;99.90
27534;DHT22;14973;51.460;7.008;2022-11-02T06:52:43;12.70;99.90
27534;DHT22;14973;51.460;7.008;2022-11-02T06:55:10;12.60;99.90
27534;DHT22;14973;51.460;7.008;2022-11-02T06:57:36;12.70;99.90
27534;DHT22;14973;51.460;7.008;2022-11-02T07:00:06;12.70;99.90
27534;DHT22;14973;51.460;7.008;2022-11-02T07:02:32;12.80;99.90
27534;DHT22;14973;51.460;7.008;2022-11-02T07:04:58;12.80;99.90
27534;DHT22;14973;51.460;7.008;2022-11-02T07:07:24;12.80;99.90
27534;DHT22;14973;51.460;7.008;2022-11-02T07:09:49;12.80;99.90
27534;DHT22;14973;51.460;7.008;2022-11-02T07:12:15;12.80;99.90
27534;DHT22;14973;51.460;7.008;2022-11-02T07:14:40;12.80;99.90
27534;DHT22;14973;51.460;7.008;2022-11-02T07:17:06;12.90;99.90
27534;DHT22;14973;51.460;7.008;2022-11-02T07:19:31;12.90;99.90
27534;DHT22;14973;51.460;7.008;2022-11-02T07:21:57;12.80;99.90
27534;DHT22;14973;51.460;7.008;2022-11-02T07:24:23;12.90;99.90
27534;DHT22;14973;51.460;7.008;2022-11-02T07:26:49;12.90;99.40
27534;DHT22;14973;51.460;7.008;2022-11-02T07:29:18;12.90;67.70
27534;DHT22;14973;51.460;7.008;2022-11-02T07:31:44;12.90;28.60
27534;DHT22;14973;51.460;7.008;2022-11-02T07:34:10;12.90;14.70
27534;DHT22;14973;51.460;7.008;2022-11-02T07:36:36;12.90;31.60
27534;DHT22;14973;51.460;7.008;2022-11-02T07:39:03;12.80;1.00
27534;DHT22;14973;51.460;7.008;2022-11-02T07:41:29;12.80;1.00
27534;DHT22;14973;51.460;7.008;2022-11-02T07:43:54;12.90;1.00
27534;DHT22;14973;51.460;7.008;2022-11-02T07:46:20;13.00;1.00
27534;DHT22;14973;51.460;7.008;2022-11-02T07:48:46;12.90;1.00
27534;DHT22;14973;51.460;7.008;2022-11-02T07:51:12;12.90;1.00
27534;DHT22;14973;51.460;7.008;2022-11-02T07:53:38;13.00;1.00
27534;DHT22;14973;51.460;7.008;2022-11-02T07:56:04;13.10;99.90
27534;DHT22;14973;51.460;7.008;2022-11-02T07:58:30;13.10;99.90
27534;DHT22;14973;51.460;7.008;2022-11-02T08:01:00;13.30;99.90
27534;DHT22;14973;51.460;7.008;2022-11-02T08:03:26;13.30;1.00
27534;DHT22;14973;51.460;7.008;2022-11-02T08:05:52;13.30;99.90
27534;DHT22;14973;51.460;7.008;2022-11-02T08:08:20;13.20;1.00
27534;DHT22;14973;51.460;7.008;2022-11-02T08:10:48;13.20;99.90
27534;DHT22;14973;51.460;7.008;2022-11-02T08:13:17;13.30;1.00
27534;DHT22;14973;51.460;7.008;2022-11-02T08:15:43;13.40;54.30
27534;DHT22;14973;51.460;7.008;2022-11-02T08:18:15;13.50;1.00
27534;DHT22;14973;51.460;7.008;2022-11-02T08:20:41;13.50;99.90
27534;DHT22;14973;51.460;7.008;2022-11-02T08:23:08;13.70;99.90
27534;DHT22;14973;51.460;7.008;2022-11-02T08:25:35;13.70;99.90
27534;DHT22;14973;51.460;7.008;2022-11-02T08:28:01;13.80;20.80
27534;DHT22;14973;51.460;7.008;2022-11-02T08:30:28;13.90;1.00
27534;DHT22;14973;51.460;7.008;2022-11-02T08:32:54;14.00;1.00
27534;DHT22;14973;51.460;7.008;2022-11-02T08:35:20;14.10;99.90
27534;DHT22;14973;51.460;7.008;2022-11-02T08:37:56;14.10;99.90
27534;DHT22;14973;51.460;7.008;2022-11-02T08:40:22;14.20;27.70
27534;DHT22;14973;51.460;7.008;2022-11-02T08:42:48;14.30;99.90
27534;DHT22;14973;51.460;7.008;2022-11-02T08:45:14;14.20;99.90
27534;DHT22;14973;51.460;7.008;2022-11-02T08:47:40;14.30;99.90
27534;DHT22;14973;51.460;7.008;2022-11-02T08:50:07;14.30;99.90
27534;DHT22;14973;51.460;7.008;2022-11-02T08:52:36;14.30;99.90
27534;DHT22;14973;51.460;7.008;2022-11-02T08:55:03;14.40;99.90
27534;DHT22;14973;51.460;7.008;2022-11-02T08:57:29;14.40;48.60
27534;DHT22;14973;51.460;7.008;2022-11-02T08:59:55;14.70;1.00
27534;DHT22;14973;51.460;7.008;2022-11-02T09:02:21;14.80;1.00
27534;DHT22;14973;51.460;7.008;2022-11-02T09:04:46;14.90;1.00
27534;DHT22;14973;51.460;7.008;2022-11-02T09:07:12;14.90;99.90
27534;DHT22;14973;51.460;7.008;2022-11-02T09:09:37;14.70;99.90
27534;DHT22;14973;51.460;7.008;2022-11-02T09:12:03;14.70;99.90
27534;DHT22;14973;51.460;7.008;2022-11-02T09:14:29;14.70;99.90
27534;DHT22;14973;51.460;7.008;2022-11-02T09:16:55;14.70;99.90
27534;DHT22;14973;51.460;7.008;2022-11-02T09:19:20;14.90;99.90
27534;DHT22;14973;51.460;7.008;2022-11-02T09:21:46;15.10;99.90
27534;DHT22;14973;51.460;7.008;2022-11-02T09:24:14;15.00;99.90
27534;DHT22;14973;51.460;7.008;2022-11-02T09:26:40;15.00;99.90
27534;DHT22;14973;51.460;7.008;2022-11-02T09:29:05;14.90;99.90
27534;DHT22;14973;51.460;7.008;2022-11-02T09:31:31;15.00;99.90
27534;DHT22;14973;51.460;7.008;2022-11-02T09:33:57;15.20;99.90
27534;DHT22;14973;51.460;7.008;2022-11-02T09:36:22;15.40;99.90
27534;DHT22;14973;51.460;7.008;2022-11-02T09:38:48;15.70;1.00
27534;DHT22;14973;51.460;7.008;2022-11-02T09:41:37;15.90;1.00
27534;DHT22;14973;51.460;7.008;2022-11-02T09:44:17;16.10;1.00
27534;DHT22;14973;51.460;7.008;2022-11-02T09:46:46;16.30;1.00
27534;DHT22;14973;51.460;7.008;2022-11-02T09:51:41;16.40;1.00
27534;DHT22;14973;51.460;7.008;2022-11-02T09:54:29;16.00;99.90
27534;DHT22;14973;51.460;7.008;2022-11-02T09:57:04;15.70;99.90
27534;DHT22;14973;51.460;7.008;2022-11-02T09:59:31;15.50;1.00
27534;DHT22;14973;51.460;7.008;2022-11-02T10:15:53;15.80;1.00
27534;DHT22;14973;51.460;7.008;2022-11-02T10:18:24;15.80;1.00
27534;DHT22;14973;51.460;7.008;2022-11-02T10:21:04;15.90;1.00
27534;DHT22;14973;51.460;7.008;2022-11-02T10:23:36;16.00;1.00
27534;DHT22;14973;51.460;7.008;2022-11-02T10:26:02;16.40;1.00
27534;DHT22;14973;51.460;7.008;2022-11-02T10:28:34;16.70;99.90
27534;DHT22;14973;51.460;7.008;2022-11-02T10:31:01;16.70;99.90
27534;DHT22;14973;51.460;7.008;2022-11-02T10:33:29;16.60;99.90
27534;DHT22;14973;51.460;7.008;2022-11-02T10:36:08;16.60;99.90
27534;DHT22;14973;51.460;7.008;2022-11-02T10:50:01;16.60;90.00
27534;DHT22;14973;51.460;7.008;2022-11-02T10:52:29;16.80;89.40
27534;DHT22;14973;51.460;7.008;2022-11-02T10:54:58;16.80;66.60
27534;DHT22;14973;51.460;7.008;2022-11-02T10:57:24;16.90;12.80
27534;DHT22;14973;51.460;7.008;2022-11-02T11:03:04;17.20;1.00
27534;DHT22;14973;51.460;7.008;2022-11-02T11:05:31;17.40;1.00
27534;DHT22;14973;51.460;7.008;2022-11-02T11:07:58;17.40;1.00
27534;DHT22;14973;51.460;7.008;2022-11-02T11:10:25;17.40;1.00
27534;DHT22;14973;51.460;7.008;2022-11-02T11:12:53;17.40;1.00
27534;DHT22;14973;51.460;7.008;2022-11-02T11:15:24;17.20;1.00
27534;DHT22;14973;51.460;7.008;2022-11-02T11:17:52;16.90;1.00
27534;DHT22;14973;51.460;7.008;2022-11-02T11:20:38;16.80;1.00
27534;DHT22;14973;51.460;7.008;2022-11-02T11:23:08;16.70;1.00
27534;DHT22;14973;51.460;7.008;2022-11-02T11:25:35;16.70;1.00
27534;DHT22;14973;51.460;7.008;2022-11-02T11:28:00;16.80;1.00
27534;DHT22;14973;51.460;7.008;2022-11-02T11:30:31;16.80;1.00
27534;DHT22;14973;51.460;7.008;2022-11-02T11:32:59;17.00;1.00
27534;DHT22;14973;51.460;7.008;2022-11-02T11:35:32;17.00;1.00
27534;DHT22;14973;51.460;7.008;2022-11-02T11:38:04;17.10;1.00
27534;DHT22;14973;51.460;7.008;2022-11-02T11:40:36;17.20;1.00
27534;DHT22;14973;51.460;7.008;2022-11-02T11:43:07;17.30;1.00
27534;DHT22;14973;51.460;7.008;2022-11-02T11:45:35;17.10;1.00
27534;DHT22;14973;51.460;7.008;2022-11-02T11:48:29;16.90;1.00
27534;DHT22;14973;51.460;7.008;2022-11-02T11:50:55;16.70;1.00
27534;DHT22;14973;51.460;7.008;2022-11-02T11:53:22;16.50;1.00
27534;DHT22;14973;51.460;7.008;2022-11-02T11:55:54;16.40;1.00
27534;DHT22;14973;51.460;7.008;2022-11-02T11:58:30;16.40;1.00
27534;DHT22;14973;51.460;7.008;2022-11-02T12:03:58;16.40;1.00
27534;DHT22;14973;51.460;7.008;2022-11-02T12:20:01;16.50;1.00
27534;DHT22;14973;51.460;7.008;2022-11-02T12:29:23;16.40;1.00
27534;DHT22;14973;51.460;7.008;2022-11-02T12:34:57;16.50;1.00
27534;DHT22;14973;51.460;7.008;2022-11-02T12:41:09;16.50;1.00
27534;DHT22;14973;51.460;7.008;2022-11-02T12:43:50;16.60;1.00
27534;DHT22;14973;51.460;7.008;2022-11-02T12:46:29;16.60;1.00
27534;DHT22;14973;51.460;7.008;2022-11-02T12:49:31;16.60;1.00
27534;DHT22;14973;51.460;7.008;2022-11-02T12:55:04;16.90;1.00
27534;DHT22;14973;51.460;7.008;2022-11-02T12:57:35;16.90;1.00
27534;DHT22;14973;51.460;7.008;2022-11-02T13:00:07;17.00;1.00
27534;DHT22;14973;51.460;7.008;2022-11-02T13:02:56;16.80;1.00
27534;DHT22;14973;51.460;7.008;2022-11-02T13:05:45;17.00;1.00
27534;DHT22;14973;51.460;7.008;2022-11-02T13:08:21;16.90;1.00
27534;DHT22;14973;51.460;7.008;2022-11-02T13:10:56;16.90;1.00
27534;DHT22;14973;51.460;7.008;2022-11-02T13:15:57;17.00;1.00
27534;DHT22;14973;51.460;7.008;2022-11-02T13:18:28;17.00;1.00
27534;DHT22;14973;51.460;7.008;2022-11-02T13:20:57;16.80;1.00
27534;DHT22;14973;51.460;7.008;2022-11-02T13:26:28;16.60;1.00
27534;DHT22;14973;51.460;7.008;2022-11-02T13:32:13;16.40;1.00
27534;DHT22;14973;51.460;7.008;2022-11-02T13:34:42;16.50;1.00
27534;DHT22;14973;51.460;7.008;2022-11-02T13:37:16;16.70;1.00
27534;DHT22;14973;51.460;7.008;2022-11-02T13:39:48;16.60;1.00
27534;DHT22;14973;51.460;7.008;2022-11-02T13:42:32;16.60;1.00
27534;DHT22;14973;51.460;7.008;2022-11-02T13:45:26;16.60;1.00
27534;DHT22;14973;51.460;7.008;2022-11-02T13:50:52;16.30;1.00
27534;DHT22;14973;51.460;7.008;2022-11-02T13:53:32;16.30;1.00
27534;DHT22;14973;51.460;7.008;2022-11-02T13:56:07;16.20;1.00
27534;DHT22;14973;51.460;7.008;2022-11-02T13:58:35;16.20;1.00
27534;DHT22;14973;51.460;7.008;2022-11-02T14:01:09;16.00;1.00
27534;DHT22;14973;51.460;7.008;2022-11-02T14:03:52;15.80;1.00
27534;DHT22;14973;51.460;7.008;2022-11-02T14:06:19;15.80;1.00
27534;DHT22;14973;51.460;7.008;2022-11-02T14:08:57;15.80;1.00
27534;DHT22;14973;51.460;7.008;2022-11-02T14:11:45;15.90;1.00
27534;DHT22;14973;51.460;7.008;2022-11-02T14:14:15;15.90;1.00
27534;DHT22;14973;51.460;7.008;2022-11-02T14:22:24;15.80;1.00
27534;DHT22;14973;51.460;7.008;2022-11-02T14:27:02;15.50;1.00
27534;DHT22;14973;51.460;7.008;2022-11-02T14:46:47;15.30;1.00
27534;DHT22;14973;51.460;7.008;2022-11-02T14:49:30;15.30;1.00
27534;DHT22;14973;51.460;7.008;2022-11-02T14:54:28;15.10;1.00
27534;DHT22;14973;51.460;7.008;2022-11-02T14:57:06;15.10;1.00
27534;DHT22;14973;51.460;7.008;2022-11-02T14:59:43;15.10;1.00
27534;DHT22;14973;51.460;7.008;2022-11-02T15:02:20;15.00;1.00
27534;DHT22;14973;51.460;7.008;2022-11-02T15:04:50;14.90;1.00
27534;DHT22;14973;51.460;7.008;2022-11-02T15:07:30;14.90;1.00
27534;DHT22;14973;51.460;7.008;2022-11-02T15:09:58;14.90;1.00
27534;DHT22;14973;51.460;7.008;2022-11-02T15:25:34;14.60;25.50
27534;DHT22;14973;51.460;7.008;2022-11-02T15:28:15;14.50;29.40
27534;DHT22;14973;51.460;7.008;2022-11-02T15:31:26;14.50;37.20
27534;DHT22;14973;51.460;7.008;2022-11-02T15:33:55;14.40;51.30
27534;DHT22;14973;51.460;7.008;2022-11-02T15:36:37;14.30;73.20
27534;DHT22;14973;51.460;7.008;2022-11-02T15:39:08;14.20;99.40
27534;DHT22;14973;51.460;7.008;2022-11-02T15:41:42;14.20;99.90
27534;DHT22;14973;51.460;7.008;2022-11-02T15:44:26;14.10;99.90
27534;DHT22;14973;51.460;7.008;2022-11-02T16:01:22;13.70;99.90
27534;DHT22;14973;51.460;7.008;2022-11-02T16:03:52;13.60;99.90
27534;DHT22;14973;51.460;7.008;2022-11-02T16:06:39;13.50;99.90
27534;DHT22;14973;51.460;7.008;2022-11-02T16:09:33;13.50;1.00
27534;DHT22;14973;51.460;7.008;2022-11-02T16:12:19;13.40;1.00
27534;DHT22;14973;51.460;7.008;2022-11-02T16:14:58;13.30;1.00
27534;DHT22;14973;51.460;7.008;2022-11-02T16:17:27;13.20;1.00
27534;DHT22;14973;51.460;7.008;2022-11-02T16:20:09;13.20;1.00
27534;DHT22;14973;51.460;7.008;2022-11-02T16:22:36;13.10;9.10
27534;DHT22;14973;51.460;7.008;2022-11-02T16:25:10;13.00;80.90
27534;DHT22;14973;51.460;7.008;2022-11-02T16:27:38;13.00;99.60
27534;DHT22;14973;51.460;7.008;2022-11-02T16:30:05;13.00;99.90
27534;DHT22;14973;51.460;7.008;2022-11-02T16:32:31;13.00;98.60
27534;DHT22;14973;51.460;7.008;2022-11-02T16:34:57;13.00;99.40
27534;DHT22;14973;51.460;7.008;2022-11-02T16:37:23;13.00;99.90
27534;DHT22;14973;51.460;7.008;2022-11-02T16:39:49;13.00;99.90
27534;DHT22;14973;51.460;7.008;2022-11-02T16:42:21;12.90;99.90
27534;DHT22;14973;51.460;7.008;2022-11-02T16:44:59;12.90;99.90
27534;DHT22;14973;51.460;7.008;2022-11-02T16:47:39;12.90;99.90
27534;DHT22;14973;51.460;7.008;2022-11-02T16:50:26;12.90;99.90
27534;DHT22;14973;51.460;7.008;2022-11-02T16:53:00;12.80;99.90
27534;DHT22;14973;51.460;7.008;2022-11-02T16:55:43;12.90;99.90
27534;DHT22;14973;51.460;7.008;2022-11-02T16:58:15;12.90;99.90
27534;DHT22;14973;51.460;7.008;2022-11-02T17:03:19;13.00;99.90
27534;DHT22;14973;51.460;7.008;2022-11-02T17:05:48;12.90;99.90
27534;DHT22;14973;51.460;7.008;2022-11-02T17:10:57;12.80;99.90
27534;DHT22;14973;51.460;7.008;2022-11-02T17:13:23;12.80;99.90
27534;DHT22;14973;51.460;7.008;2022-11-02T17:15:52;12.80;99.90
27534;DHT22;14973;51.460;7.008;2022-11-02T17:20:45;12.90;99.90
27534;DHT22;14973;51.460;7.008;2022-11-02T17:23:32;12.80;99.90
27534;DHT22;14973;51.460;7.008;2022-11-02T17:29:02;12.80;99.90
27534;DHT22;14973;51.460;7.008;2022-11-02T17:31:55;12.80;99.90
27534;DHT22;14973;51.460;7.008;2022-11-02T17:34:23;12.80;99.90
27534;DHT22;14973;51.460;7.008;2022-11-02T17:36:49;12.70;99.90
27534;DHT22;14973;51.460;7.008;2022-11-02T17:39:16;12.70;99.90
27534;DHT22;14973;51.460;7.008;2022-11-02T17:41:43;12.70;99.90
27534;DHT22;14973;51.460;7.008;2022-11-02T17:44:27;12.60;99.90
27534;DHT22;14973;51.460;7.008;2022-11-02T17:46:54;12.50;99.90
27534;DHT22;14973;51.460;7.008;2022-11-02T17:49:19;12.50;99.90
27534;DHT22;14973;51.460;7.008;2022-11-02T17:51:46;12.50;99.90
27534;DHT22;14973;51.460;7.008;2022-11-02T17:54:12;12.40;99.90
27534;DHT22;14973;51.460;7.008;2022-11-02T17:56:39;12.40;99.90
27534;DHT22;14973;51.460;7.008;2022-11-02T17:59:05;12.40;99.90
27534;DHT22;14973;51.460;7.008;2022-11-02T18:01:31;12.40;99.90
27534;DHT22;14973;51.460;7.008;2022-11-02T18:03:57;12.40;99.90
27534;DHT22;14973;51.460;7.008;2022-11-02T18:06:22;12.40;99.90
27534;DHT22;14973;51.460;7.008;2022-11-02T18:08:48;12.40;99.90
27534;DHT22;14973;51.460;7.008;2022-11-02T18:11:32;12.30;99.90
27534;DHT22;14973;51.460;7.008;2022-11-02T18:13:58;12.40;99.90
27534;DHT22;14973;51.460;7.008;2022-11-02T18:16:23;12.40;99.90
27534;DHT22;14973;51.460;7.008;2022-11-02T18:18:49;12.30;99.90
27534;DHT22;14973;51.460;7.008;2022-11-02T18:21:14;12.30;99.90
27534;DHT22;14973;51.460;7.008;2022-11-02T18:23:40;12.30;99.90
27534;DHT22;14973;51.460;7.008;2022-11-02T18:26:07;12.30;99.90
27534;DHT22;14973;51.460;7.008;2022-11-02T18:28:33;12.30;99.90
27534;DHT22;14973;51.460;7.008;2022-11-02T18:30:59;12.30;99.90
27534;DHT22;14973;51.460;7.008;2022-11-02T18:33:25;12.30;99.90
27534;DHT22;14973;51.460;7.008;2022-11-02T18:35:50;12.30;99.90
27534;DHT22;14973;51.460;7.008;2022-11-02T18:38:16;12.30;99.90
27534;DHT22;14973;51.460;7.008;2022-11-02T18:40:42;12.30;99.90
27534;DHT22;14973;51.460;7.008;2022-11-02T18:43:07;12.30;99.90
27534;DHT22;14973;51.460;7.008;2022-11-02T18:45:33;12.30;99.90
27534;DHT22;14973;51.460;7.008;2022-11-02T18:47:59;12.30;99.90
27534;DHT22;14973;51.460;7.008;2022-11-02T18:50:24;12.30;99.90